Time,TemperatureF,DewpointF,PressureIn,WindDirection,WindDirectionDegrees,WindSpeedMPH,WindSpeedGustMPH,Humidity,HourlyPrecipIn,Conditions,Clouds,dailyrainin,SoftwareType,DateUTC
2013-03-27 00:01:00,33.1,23.0,25.01,WSW,238,0.0,-999.0,66,-99.99,,,0.00,weatherlink.com 1.10,2013-03-27 04:01:00,
2013-03-27 00:16:00,32.1,23.0,25.02,WSW,238,0.0,-999.0,69,-99.99,,,0.00,weatherlink.com 1.10,2013-03-27 04:16:00,
2013-03-27 00:31:00,31.3,23.0,25.01,WSW,238,0.0,-999.0,70,-99.99,,,0.00,weatherlink.com 1.10,2013-03-27 04:31:00,
2013-03-27 00:46:00,30.6,23.0,25.01,WSW,238,0.0,-999.0,73,-99.99,,,0.00,weatherlink.com 1.10,2013-03-27 04:46:00,
2013-03-27 01:01:00,29.8,22.0,25.02,WSW,238,0.0,-999.0,74,-99.99,,,0.00,weatherlink.com 1.10,2013-03-27 05:01:00,
2013-03-27 01:16:00,29.3,23.0,25.00,WSW,238,0.0,-999.0,77,-99.99,,,0.00,weatherlink.com 1.10,2013-03-27 05:16:00,
2013-03-27 01:31:00,28.9,23.0,25.02,WSW,238,0.0,-999.0,79,-99.99,,,0.00,weatherlink.com 1.10,2013-03-27 05:31:00,
2013-03-27 01:46:00,28.7,24.0,25.02,WSW,238,0.0,-999.0,81,-99.99,,,0.00,weatherlink.com 1.10,2013-03-27 05:46:00,
2013-03-27 02:01:00,28.4,23.0,25.01,WSW,238,0.0,-999.0,80,-99.99,,,0.00,weatherlink.com 1.10,2013-03-27 06:01:00,
2013-03-27 02:16:00,28.1,23.0,25.01,WSW,238,0.0,-999.0,80,-99.99,,,0.00,weatherlink.com 1.10,2013-03-27 06:16:00,
2013-03-27 02:31:00,27.7,23.0,25.01,WSW,238,0.0,-999.0,81,-99.99,,,0.00,weatherlink.com 1.10,2013-03-27 06:31:00,
2013-03-27 02:46:00,27.5,22.0,25.02,WSW,238,0.0,-999.0,80,-99.99,,,0.00,weatherlink.com 1.10,2013-03-27 06:46:00,
2013-03-27 03:01:00,27.2,22.0,25.02,WSW,238,0.0,-999.0,79,-99.99,,,0.00,weatherlink.com 1.10,2013-03-27 07:01:00,
2013-03-27 03:16:00,27.7,23.0,25.01,WSW,238,0.0,-999.0,83,-99.99,,,0.00,weatherlink.com 1.10,2013-03-27 07:16:00,
2013-03-27 03:31:00,27.4,22.0,25.02,WSW,238,0.0,-999.0,81,-99.99,,,0.00,weatherlink.com 1.10,2013-03-27 07:31:00,
2013-03-27 03:46:00,26.7,22.0,25.02,WSW,238,0.0,-999.0,81,-99.99,,,0.00,weatherlink.com 1.10,2013-03-27 07:46:00,
2013-03-27 04:01:00,26.5,22.0,25.02,WSW,238,0.0,-999.0,82,-99.99,,,0.00,weatherlink.com 1.10,2013-03-27 08:01:00,
2013-03-27 04:16:00,26.0,21.0,25.02,WSW,238,0.0,-999.0,82,-99.99,,,0.00,weatherlink.com 1.10,2013-03-27 08:16:00,
2013-03-27 04:31:00,25.9,21.0,25.01,WSW,238,0.0,-999.0,83,-99.99,,,0.00,weatherlink.com 1.10,2013-03-27 08:31:00,
2013-03-27 04:46:00,25.7,22.0,25.02,WSW,238,0.0,-999.0,84,-99.99,,,0.00,weatherlink.com 1.10,2013-03-27 08:46:00,
2013-03-27 05:01:00,25.5,21.0,25.02,WSW,238,0.0,-999.0,84,-99.99,,,0.00,weatherlink.com 1.10,2013-03-27 09:01:00,
2013-03-27 05:16:00,25.2,21.0,25.02,WSW,238,0.0,-999.0,84,-99.99,,,0.00,weatherlink.com 1.10,2013-03-27 09:16:00,
2013-03-27 05:31:00,25.2,22.0,25.02,WSW,238,0.0,-999.0,86,-99.99,,,0.00,weatherlink.com 1.10,2013-03-27 09:31:00,
2013-03-27 05:46:00,25.1,21.0,25.02,WSW,238,0.0,-999.0,84,-99.99,,,0.00,weatherlink.com 1.10,2013-03-27 09:46:00,
2013-03-27 06:01:00,24.7,21.0,25.02,WSW,238,0.0,-999.0,85,-99.99,,,0.00,weatherlink.com 1.10,2013-03-27 10:01:00,
2013-03-27 06:16:00,24.6,21.0,25.02,WSW,238,0.0,-999.0,85,-99.99,,,0.00,weatherlink.com 1.10,2013-03-27 10:16:00,
2013-03-27 06:31:00,24.3,20.0,25.01,WSW,238,0.0,-999.0,85,-99.99,,,0.00,weatherlink.com 1.10,2013-03-27 10:31:00,
2013-03-27 06:46:00,24.2,20.0,25.02,WSW,238,0.0,-999.0,85,-99.99,,,0.00,weatherlink.com 1.10,2013-03-27 10:46:00,
2013-03-27 07:01:00,23.9,20.0,25.01,WSW,238,0.0,-999.0,85,-99.99,,,0.00,weatherlink.com 1.10,2013-03-27 11:01:00,
2013-03-27 07:16:00,24.2,21.0,25.00,WSW,238,0.0,-999.0,86,-99.99,,,0.00,weatherlink.com 1.10,2013-03-27 11:16:00,
2013-03-27 07:31:00,25.2,22.0,25.01,WSW,238,0.0,-999.0,86,-99.99,,,0.00,weatherlink.com 1.10,2013-03-27 11:31:00,
2013-03-27 07:46:00,27.2,24.0,25.01,WSW,238,0.0,-999.0,86,-99.99,,,0.00,weatherlink.com 1.10,2013-03-27 11:46:00,
2013-03-27 08:01:00,30.2,25.0,25.02,NNE,24,0.0,-999.0,82,-99.99,,,0.00,weatherlink.com 1.10,2013-03-27 12:01:00,
2013-03-27 08:16:00,34.0,26.0,25.02,WSW,241,1.0,-999.0,73,-99.99,,,0.00,weatherlink.com 1.10,2013-03-27 12:16:00,
2013-03-27 08:31:00,37.2,26.0,25.02,West,269,1.0,-999.0,64,-99.99,,,0.00,weatherlink.com 1.10,2013-03-27 12:31:00,
2013-03-27 08:46:00,39.5,26.0,25.01,WNW,298,0.0,-999.0,59,-99.99,,,0.00,weatherlink.com 1.10,2013-03-27 12:46:00,
2013-03-27 09:01:00,40.9,26.0,25.01,NNE,16,0.0,-999.0,55,-99.99,,,0.00,weatherlink.com 1.10,2013-03-27 13:01:00,
2013-03-27 09:16:00,42.5,26.0,25.02,NW,314,0.0,-999.0,53,-99.99,,,0.00,weatherlink.com 1.10,2013-03-27 13:16:00,
2013-03-27 09:31:00,43.3,26.0,25.01,NNW,336,0.0,-999.0,50,-99.99,,,0.00,weatherlink.com 1.10,2013-03-27 13:31:00,
2013-03-27 10:01:00,45.8,27.0,25.00,NNW,344,0.0,-999.0,49,-99.99,,,0.00,weatherlink.com 1.10,2013-03-27 14:01:00,
2013-03-27 10:16:00,46.5,28.0,25.01,NE,34,6.0,-999.0,49,-99.99,,,0.00,weatherlink.com 1.10,2013-03-27 14:16:00,
2013-03-27 10:31:00,47.5,27.0,25.02,West,267,4.0,-999.0,46,-99.99,,,0.00,weatherlink.com 1.10,2013-03-27 14:31:00,
2013-03-27 10:46:00,48.6,28.0,25.02,NW,317,1.0,-999.0,45,-99.99,,,0.00,weatherlink.com 1.10,2013-03-27 14:46:00,
2013-03-27 11:01:00,49.4,28.0,25.02,North,360,9.0,-999.0,44,-99.99,,,0.00,weatherlink.com 1.10,2013-03-27 15:01:00,
2013-03-27 11:16:00,50.1,30.0,25.01,NNE,27,0.0,-999.0,47,-99.99,,,0.00,weatherlink.com 1.10,2013-03-27 15:16:00,
2013-03-27 11:31:00,50.3,28.0,25.01,WNW,284,2.0,-999.0,42,-99.99,,,0.00,weatherlink.com 1.10,2013-03-27 15:31:00,
2013-03-27 11:46:00,50.8,29.0,24.99,NNE,14,4.0,-999.0,43,-99.99,,,0.00,weatherlink.com 1.10,2013-03-27 15:46:00,
2013-03-27 12:31:00,50.1,26.0,25.00,WNW,291,0.0,-999.0,40,-99.99,,,0.00,weatherlink.com 1.10,2013-03-27 16:31:00,
2013-03-27 12:46:00,51.1,27.0,25.02,NE,53,4.0,-999.0,40,-99.99,,,0.00,weatherlink.com 1.10,2013-03-27 16:46:00,
2013-03-27 13:16:00,51.6,27.0,25.01,SE,146,0.0,-999.0,39,-99.99,,,0.00,weatherlink.com 1.10,2013-03-27 17:16:00,
2013-03-27 13:31:00,51.1,26.0,25.01,North,349,3.0,-999.0,38,-99.99,,,0.00,weatherlink.com 1.10,2013-03-27 17:31:00,
2013-03-27 13:46:00,50.7,26.0,25.00,NW,318,2.0,-999.0,39,-99.99,,,0.00,weatherlink.com 1.10,2013-03-27 17:46:00,
2013-03-27 14:01:00,51.4,27.0,25.00,NNW,331,3.0,-999.0,39,-99.99,,,0.00,weatherlink.com 1.10,2013-03-27 18:01:00,
2013-03-27 14:17:00,52.3,29.0,25.01,West,278,0.0,-999.0,41,-99.99,,,0.00,weatherlink.com 1.10,2013-03-27 18:17:00,
2013-03-27 14:32:00,51.3,27.0,25.02,NNW,341,17.0,-999.0,39,-99.99,,,0.00,weatherlink.com 1.10,2013-03-27 18:32:00,
2013-03-27 14:47:00,50.6,26.0,25.02,NNE,28,2.0,-999.0,39,-99.99,,,0.00,weatherlink.com 1.10,2013-03-27 18:47:00,
2013-03-27 15:02:00,51.4,28.0,25.03,West,281,3.0,-999.0,40,-99.99,,,0.00,weatherlink.com 1.10,2013-03-27 19:02:00,
2013-03-27 15:16:00,51.6,27.0,25.00,WSW,250,0.0,-999.0,38,-99.99,,,0.00,weatherlink.com 1.10,2013-03-27 19:16:00,
2013-03-27 15:31:00,51.3,28.0,25.01,NNE,16,4.0,-999.0,40,-99.99,,,0.00,weatherlink.com 1.10,2013-03-27 19:31:00,
2013-03-27 15:46:00,51.6,28.0,25.01,WNW,299,1.0,-999.0,40,-99.99,,,0.00,weatherlink.com 1.10,2013-03-27 19:46:00,
2013-03-27 16:01:00,50.5,27.0,25.02,NW,319,3.0,-999.0,41,-99.99,,,0.00,weatherlink.com 1.10,2013-03-27 20:01:00,
2013-03-27 16:16:00,50.5,27.0,25.02,WNW,287,0.0,-999.0,41,-99.99,,,0.00,weatherlink.com 1.10,2013-03-27 20:16:00,
2013-03-27 16:31:00,49.9,27.0,25.02,WNW,302,1.0,-999.0,41,-99.99,,,0.00,weatherlink.com 1.10,2013-03-27 20:31:00,
2013-03-27 16:46:00,49.8,28.0,25.03,WSW,242,0.0,-999.0,43,-99.99,,,0.00,weatherlink.com 1.10,2013-03-27 20:46:00,
2013-03-27 17:01:00,49.7,27.0,25.02,North,355,2.0,-999.0,42,-99.99,,,0.00,weatherlink.com 1.10,2013-03-27 21:01:00,
2013-03-27 17:16:00,50.0,27.0,25.02,NE,56,5.0,-999.0,41,-99.99,,,0.00,weatherlink.com 1.10,2013-03-27 21:16:00,
2013-03-27 17:31:00,49.2,27.0,25.02,NW,315,2.0,-999.0,42,-99.99,,,0.00,weatherlink.com 1.10,2013-03-27 21:31:00,
2013-03-27 17:46:00,49.1,26.0,25.02,NNW,346,6.0,-999.0,41,-99.99,,,0.00,weatherlink.com 1.10,2013-03-27 21:46:00,
2013-03-27 18:01:00,48.3,27.0,25.03,NW,310,0.0,-999.0,43,-99.99,,,0.00,weatherlink.com 1.10,2013-03-27 22:01:00,
2013-03-27 18:16:00,47.7,27.0,25.02,North,360,0.0,-999.0,45,-99.99,,,0.00,weatherlink.com 1.10,2013-03-27 22:16:00,
2013-03-27 18:31:00,46.8,27.0,25.04,North,9,0.0,-999.0,46,-99.99,,,0.00,weatherlink.com 1.10,2013-03-27 22:31:00,
2013-03-27 18:46:00,45.9,28.0,25.02,North,360,0.0,-999.0,50,-99.99,,,0.00,weatherlink.com 1.10,2013-03-27 22:46:00,
2013-03-27 19:01:00,45.2,27.0,25.03,NNE,29,0.0,-999.0,49,-99.99,,,0.00,weatherlink.com 1.10,2013-03-27 23:01:00,
2013-03-27 20:01:00,44.4,27.0,24.98,North,5,0.0,-999.0,50,-99.99,,,0.00,weatherlink.com 1.10,2013-03-28 00:01:00,
2013-03-27 20:16:00,43.6,28.0,25.02,North,355,0.0,-999.0,54,-99.99,,,0.00,weatherlink.com 1.10,2013-03-28 00:16:00,
2013-03-27 20:46:00,44.2,28.0,25.02,NNE,19,0.0,-999.0,53,-99.99,,,0.00,weatherlink.com 1.10,2013-03-28 00:46:00,
2013-03-27 21:01:00,44.6,29.0,25.02,NNW,341,0.0,-999.0,54,-99.99,,,0.00,weatherlink.com 1.10,2013-03-28 01:01:00,
2013-03-27 21:16:00,44.2,29.0,25.02,NE,34,3.0,-999.0,56,-99.99,,,0.00,weatherlink.com 1.10,2013-03-28 01:16:00,
2013-03-27 21:31:00,43.9,30.0,25.02,North,350,0.0,-999.0,58,-99.99,,,0.00,weatherlink.com 1.10,2013-03-28 01:31:00,
2013-03-27 21:46:00,43.4,29.0,25.02,NNW,329,0.0,-999.0,58,-99.99,,,0.00,weatherlink.com 1.10,2013-03-28 01:46:00,
2013-03-27 22:01:00,43.1,30.0,25.02,North,360,1.0,-999.0,60,-99.99,,,0.00,weatherlink.com 1.10,2013-03-28 02:01:00,
2013-03-27 22:16:00,42.7,30.0,25.02,NNW,344,1.0,-999.0,61,-99.99,,,0.00,weatherlink.com 1.10,2013-03-28 02:16:00,
2013-03-27 22:31:00,42.3,30.0,25.02,North,10,0.0,-999.0,62,-99.99,,,0.00,weatherlink.com 1.10,2013-03-28 02:31:00,
2013-03-27 22:46:00,42.2,30.0,24.98,NW,322,5.0,-999.0,62,-99.99,,,0.00,weatherlink.com 1.10,2013-03-28 02:46:00,
2013-03-27 23:01:00,41.7,30.0,25.02,North,355,0.0,-999.0,64,-99.99,,,0.00,weatherlink.com 1.10,2013-03-28 03:01:00,
2013-03-27 23:16:00,41.2,30.0,25.02,NNW,346,0.0,-999.0,65,-99.99,,,0.00,weatherlink.com 1.10,2013-03-28 03:16:00,
2013-03-27 23:31:00,40.9,31.0,25.02,NNE,19,0.0,-999.0,67,-99.99,,,0.00,weatherlink.com 1.10,2013-03-28 03:31:00,
2013-03-27 23:46:00,40.6,31.0,25.03,NNW,345,3.0,-999.0,69,-99.99,,,0.00,weatherlink.com 1.10,2013-03-28 03:46:00,